KELD/ELD METAR and TAF weather

Enter ICAO airport designator
Station Type Date Time Source
KELD METAR 2021/05/15 00:53 UTC NOAA

KELD 150053Z AUTO 00000KT 10SM CLR 19/11 A3018 RMK AO2 SLP219 T01940106


Station Type Date Time Source
KELD Decoded METAR 2021/05/15 00:53 UTC NOAA

SOUTH ARKANSAS REGIONAL, AR, United States (KELD) 33-13N 092-49W 81M
May 14, 2021 - 08:53 PM EDT / 2021.05.15 0053 UTC
Wind: Calm:0
Visibility: 10 mile(s):0
Sky conditions: clear
Temperature: 66.9 F (19.4 C)
Dew Point: 51.1 F (10.6 C)
Relative Humidity: 56%
Pressure (altimeter): 30.18 in. Hg (1022 hPa)
ob: KELD 150053Z AUTO 00000KT 10SM CLR 19/11 A3018 RMK AO2 SLP219 T01940106
cycle: 1

Station Type Date Time Source
KELD TAF 2021/05/14 18:36 UTC NOAA

TAF KELD 141733Z 1418/1518 07008KT P6SM SKC
FM150000 00000KT P6SM FEW250
FM151500 17007KT P6SM SCT050 SCT250

Example: see airport list